createdAt,value
2022-07-26T00:01:19.984Z,10.88
2022-07-26T00:03:49.452Z,7.25
2022-07-26T00:06:18.997Z,7.68
2022-07-26T00:08:48.957Z,7.10
2022-07-26T00:11:17.294Z,5.45
2022-07-26T00:13:45.575Z,7.80
2022-07-26T00:16:13.792Z,10.25
2022-07-26T00:18:42.047Z,8.15
2022-07-26T00:21:09.973Z,7.07
2022-07-26T00:23:39.845Z,6.63
2022-07-26T00:26:09.458Z,8.63
2022-07-26T00:28:37.467Z,8.70
2022-07-26T00:31:05.994Z,6.88
2022-07-26T00:33:34.138Z,7.85
2022-07-26T00:36:02.255Z,7.95
2022-07-26T00:38:30.247Z,5.55
2022-07-26T00:40:58.663Z,7.43
2022-07-26T00:43:28.417Z,6.00
2022-07-26T00:45:56.676Z,7.82
2022-07-26T00:48:24.944Z,11.95
2022-07-26T00:50:55.330Z,6.75
2022-07-26T00:53:24.430Z,7.88
2022-07-26T00:55:52.695Z,6.20
2022-07-26T00:58:20.629Z,9.32
2022-07-26T01:00:50.155Z,8.60
2022-07-26T01:03:18.192Z,7.00
2022-07-26T01:05:47.046Z,6.78
2022-07-26T01:08:15.136Z,6.13
2022-07-26T01:10:43.857Z,6.82
2022-07-26T01:13:12.212Z,7.75
2022-07-26T01:15:40.487Z,5.35
2022-07-26T01:18:09.961Z,5.63
2022-07-26T01:20:38.436Z,10.43
2022-07-26T01:23:08.909Z,6.20
2022-07-26T01:25:43.159Z,5.88
2022-07-26T01:28:12.093Z,6.50
2022-07-26T01:30:48.581Z,8.55
2022-07-26T01:33:17.093Z,7.32
2022-07-26T01:35:45.405Z,5.93
2022-07-26T01:38:14.824Z,7.43
2022-07-26T01:40:42.827Z,6.17
2022-07-26T01:43:10.738Z,7.35
2022-07-26T01:45:38.876Z,9.43
2022-07-26T01:48:08.634Z,6.90
2022-07-26T01:50:37.414Z,7.10
2022-07-26T01:53:08.197Z,7.43
2022-07-26T01:55:38.164Z,8.70
2022-07-26T01:58:06.926Z,10.63
2022-07-26T02:00:35.242Z,7.77
2022-07-26T02:03:03.918Z,9.13
2022-07-26T02:05:32.169Z,8.75
2022-07-26T02:08:00.209Z,8.30
2022-07-26T02:10:50.456Z,10.50
2022-07-26T02:13:19.836Z,8.20
2022-07-26T02:15:47.904Z,11.43
2022-07-26T02:18:16.111Z,9.90
2022-07-26T02:20:44.394Z,7.80
2022-07-26T02:23:12.934Z,8.27
2022-07-26T02:25:41.057Z,11.23
2022-07-26T02:28:09.051Z,8.80
2022-07-26T02:30:38.372Z,12.27
2022-07-26T02:33:07.473Z,6.57
2022-07-26T02:35:35.537Z,14.77
2022-07-26T02:38:04.769Z,9.13
2022-07-26T02:40:33.237Z,10.57
2022-07-26T02:43:01.429Z,10.97
2022-07-26T02:45:31.692Z,6.43
2022-07-26T02:48:01.139Z,8.70
2022-07-26T02:50:30.226Z,8.20
2022-07-26T02:52:58.273Z,11.17
2022-07-26T02:55:28.339Z,10.03
2022-07-26T02:57:56.282Z,12.17
2022-07-26T03:00:26.666Z,10.20
2022-07-26T03:02:55.673Z,11.05
2022-07-26T03:05:25.441Z,10.87
2022-07-26T03:07:53.764Z,15.02
2022-07-26T03:10:21.935Z,11.17
2022-07-26T03:12:49.874Z,8.37
2022-07-26T03:15:18.314Z,13.38
2022-07-26T03:17:46.327Z,9.73
2022-07-26T03:20:14.694Z,8.35
2022-07-26T03:22:44.226Z,9.63
2022-07-26T03:25:12.280Z,8.93
2022-07-26T03:27:40.234Z,9.07
2022-07-26T03:30:09.489Z,9.03
2022-07-26T03:32:37.552Z,10.17
2022-07-26T03:35:06.630Z,18.50
2022-07-26T03:37:44.171Z,12.90
2022-07-26T03:40:16.533Z,13.05
2022-07-26T03:42:45.330Z,6.97
2022-07-26T03:45:14.431Z,13.30
2022-07-26T03:47:43.414Z,13.80
2022-07-26T03:50:13.732Z,10.30
2022-07-26T03:52:42.186Z,11.17
2022-07-26T03:55:28.938Z,10.88
2022-07-26T03:57:58.437Z,14.87
2022-07-26T04:00:26.563Z,13.23
2022-07-26T04:02:54.700Z,9.57
2022-07-26T04:05:23.749Z,13.55
2022-07-26T04:07:54.737Z,11.77
2022-07-26T04:10:24.358Z,9.85
2022-07-26T04:12:52.245Z,9.13
2022-07-26T04:15:21.788Z,13.10
2022-07-26T04:17:49.739Z,13.60
2022-07-26T04:20:18.167Z,10.75
2022-07-26T04:22:46.385Z,12.70
2022-07-26T04:25:14.481Z,11.93
2022-07-26T04:27:42.387Z,11.35
2022-07-26T04:30:15.189Z,14.48
2022-07-26T04:32:45.911Z,9.70
2022-07-26T04:35:15.208Z,13.73
2022-07-26T04:37:43.685Z,12.98
2022-07-26T04:40:13.356Z,13.17
2022-07-26T04:42:42.233Z,12.00
2022-07-26T04:45:12.739Z,12.30
2022-07-26T04:47:44.459Z,15.63
2022-07-26T04:50:13.672Z,14.82
2022-07-26T04:52:43.425Z,11.45
2022-07-26T04:55:12.161Z,14.45
2022-07-26T04:57:40.384Z,10.05
2022-07-26T05:00:27.235Z,7.43
2022-07-26T05:02:58.902Z,8.30
2022-07-26T05:05:29.621Z,6.18
2022-07-26T05:07:59.675Z,5.28
2022-07-26T05:10:31.436Z,5.80
2022-07-26T05:12:59.566Z,6.50
2022-07-26T05:15:35.349Z,5.63
2022-07-26T05:18:08.828Z,5.22
2022-07-26T05:20:39.254Z,3.33
2022-07-26T05:23:07.325Z,4.97
2022-07-26T05:25:35.657Z,7.45
2022-07-26T05:28:03.570Z,4.55
2022-07-26T05:30:31.764Z,3.87
2022-07-26T05:32:59.874Z,2.93
2022-07-26T05:35:29.227Z,4.17
2022-07-26T05:37:57.230Z,5.27
2022-07-26T05:40:25.335Z,4.27
2022-07-26T05:42:53.299Z,5.07
2022-07-26T05:45:21.483Z,3.93
2022-07-26T05:47:51.409Z,4.43
2022-07-26T05:50:19.911Z,4.20
2022-07-26T05:52:49.282Z,3.77
2022-07-26T05:55:17.424Z,4.40
2022-07-26T05:58:00.498Z,3.08
2022-07-26T06:00:28.713Z,2.83
2022-07-26T06:02:56.733Z,3.47
2022-07-26T06:05:24.728Z,5.07
2022-07-26T06:07:54.261Z,5.83
2022-07-26T06:10:22.194Z,3.67
2022-07-26T06:12:50.137Z,6.17
2022-07-26T06:15:18.173Z,5.37
2022-07-26T06:17:46.113Z,6.60
2022-07-26T06:20:14.067Z,6.67
2022-07-26T06:22:42.288Z,5.93
2022-07-26T06:25:11.693Z,6.03
2022-07-26T06:27:39.683Z,5.60
2022-07-26T06:30:10.106Z,5.55
2022-07-26T06:32:38.047Z,5.13
2022-07-26T06:35:06.745Z,6.22
2022-07-26T06:37:37.547Z,7.95
2022-07-26T06:40:06.425Z,5.43
2022-07-26T06:42:35.768Z,5.43
2022-07-26T06:45:05.314Z,5.18
2022-07-26T06:47:33.916Z,7.18
2022-07-26T06:50:01.934Z,4.72
2022-07-26T06:52:30.063Z,9.25
2022-07-26T06:54:57.958Z,7.25
2022-07-26T06:57:25.893Z,5.78
2022-07-26T06:59:55.390Z,7.40
2022-07-26T07:02:23.296Z,6.30
2022-07-26T07:04:51.245Z,5.93
2022-07-26T07:07:19.393Z,5.35
2022-07-26T07:09:47.443Z,4.38
2022-07-26T07:12:15.791Z,4.35
2022-07-26T07:14:43.979Z,4.72
2022-07-26T07:17:18.467Z,4.20
2022-07-26T07:19:48.241Z,4.85
2022-07-26T07:22:16.327Z,3.22
2022-07-26T07:24:44.697Z,2.63
2022-07-26T07:27:14.841Z,3.10
2022-07-26T07:29:43.761Z,4.70
2022-07-26T07:32:18.089Z,3.28
2022-07-26T07:34:47.646Z,2.85
2022-07-26T07:37:15.859Z,3.88
2022-07-26T07:39:43.972Z,3.65
2022-07-26T07:42:17.026Z,4.20
2022-07-26T07:44:45.061Z,3.38
2022-07-26T07:47:14.772Z,4.82
2022-07-26T07:49:42.954Z,3.75
2022-07-26T07:52:10.821Z,3.83
2022-07-26T07:54:38.763Z,4.72
2022-07-26T07:57:06.784Z,4.88
2022-07-26T07:59:37.091Z,5.20
2022-07-26T08:02:07.960Z,2.88
2022-07-26T08:04:37.391Z,2.88
2022-07-26T08:07:05.510Z,3.00
2022-07-26T08:09:34.152Z,3.13
2022-07-26T08:12:02.348Z,2.40
2022-07-26T08:14:30.399Z,4.82
2022-07-26T08:16:58.737Z,2.38
2022-07-26T08:19:32.175Z,2.92
2022-07-26T08:22:12.265Z,3.65
2022-07-26T08:24:40.611Z,3.90
2022-07-26T08:27:08.666Z,3.35
2022-07-26T08:29:36.735Z,4.22
2022-07-26T08:32:05.031Z,4.18
2022-07-26T08:34:33.164Z,3.45
2022-07-26T08:37:16.483Z,5.90
2022-07-26T08:39:47.797Z,4.82
2022-07-26T08:42:17.096Z,4.75
2022-07-26T08:44:51.843Z,4.82
2022-07-26T08:47:35.277Z,3.47
2022-07-26T08:50:07.008Z,4.15
2022-07-26T08:52:35.297Z,3.55
2022-07-26T08:55:05.016Z,3.63
2022-07-26T08:57:32.976Z,2.08
2022-07-26T09:00:20.185Z,4.97
2022-07-26T09:02:48.917Z,2.38
2022-07-26T09:05:19.247Z,3.33
2022-07-26T09:07:47.432Z,3.40
2022-07-26T09:10:17.365Z,2.70
2022-07-26T09:12:46.036Z,3.60
2022-07-26T09:15:21.999Z,5.15
2022-07-26T09:17:52.327Z,18.35
2022-07-26T09:20:25.744Z,8.32
2022-07-26T09:23:02.554Z,6.00
2022-07-26T09:25:33.618Z,3.85
2022-07-26T09:28:01.958Z,4.18
2022-07-26T09:30:32.021Z,3.70
2022-07-26T09:33:03.586Z,2.65
2022-07-26T09:35:51.379Z,2.63
2022-07-26T09:38:20.640Z,8.77
2022-07-26T09:40:51.427Z,5.13
2022-07-26T09:43:24.584Z,5.85
2022-07-26T09:46:04.876Z,3.88
2022-07-26T09:48:59.575Z,3.75
2022-07-26T09:51:37.333Z,7.10
2022-07-26T09:54:05.725Z,3.70
2022-07-26T09:56:46.479Z,5.03
2022-07-26T09:59:16.542Z,4.45
2022-07-26T10:01:44.935Z,7.32
2022-07-26T10:04:14.079Z,5.75
2022-07-26T10:06:43.276Z,2.55
2022-07-26T10:09:11.923Z,4.95
2022-07-26T10:11:47.335Z,3.35
2022-07-26T10:14:38.282Z,5.13
2022-07-26T10:17:40.022Z,4.03
2022-07-26T10:20:17.259Z,4.68
2022-07-26T10:22:50.686Z,8.90
2022-07-26T10:25:47.678Z,5.35
2022-07-26T10:28:27.825Z,4.25
2022-07-26T10:31:24.517Z,5.95
2022-07-26T10:33:54.661Z,3.13
2022-07-26T10:36:24.207Z,3.55
2022-07-26T10:39:10.408Z,3.35
2022-07-26T10:41:44.033Z,3.05
2022-07-26T10:44:19.241Z,4.32
2022-07-26T10:46:57.975Z,4.22
2022-07-26T10:49:31.526Z,2.95
2022-07-26T10:52:14.957Z,3.45
2022-07-26T10:55:17.294Z,6.70
2022-07-26T10:57:47.603Z,4.65
2022-07-26T11:00:19.939Z,2.45
2022-07-26T11:03:05.693Z,3.22
2022-07-26T11:05:35.126Z,4.57
2022-07-26T11:08:12.144Z,3.38
2022-07-26T11:10:41.864Z,5.07
2022-07-26T11:13:15.768Z,5.20
2022-07-26T11:15:47.354Z,3.35
2022-07-26T11:18:22.300Z,4.00
2022-07-26T11:20:55.542Z,4.10
2022-07-26T11:23:32.506Z,5.82
2022-07-26T11:26:11.733Z,6.15
2022-07-26T11:28:50.868Z,4.53
2022-07-26T11:31:22.562Z,5.20
2022-07-26T11:33:57.630Z,5.78
2022-07-26T11:36:37.108Z,5.45
2022-07-26T11:39:07.616Z,6.85
2022-07-26T11:41:36.184Z,4.40
2022-07-26T11:44:05.907Z,6.28
2022-07-26T11:46:37.654Z,7.10
2022-07-26T11:49:13.247Z,6.88
2022-07-26T11:51:41.473Z,5.65
2022-07-26T11:54:09.572Z,7.03
2022-07-26T11:56:37.910Z,7.32
2022-07-26T11:59:06.277Z,5.97
2022-07-26T12:01:35.641Z,7.20
2022-07-26T12:04:03.794Z,5.85
2022-07-26T12:06:39.815Z,9.52
2022-07-26T12:09:07.992Z,8.45
2022-07-26T12:11:41.707Z,8.35
2022-07-26T12:14:12.538Z,8.50
2022-07-26T12:16:47.224Z,6.18
2022-07-26T12:19:29.875Z,8.88
2022-07-26T12:22:00.544Z,7.13
2022-07-26T12:24:47.289Z,7.13
2022-07-26T12:27:19.701Z,4.30
2022-07-26T12:29:49.354Z,5.32
2022-07-26T12:32:20.684Z,7.15
2022-07-26T12:35:00.556Z,6.00
2022-07-26T12:37:39.513Z,5.22
2022-07-26T12:40:11.144Z,3.95
2022-07-26T12:42:40.943Z,7.53
2022-07-26T12:45:10.755Z,6.53
2022-07-26T12:47:42.021Z,6.75
2022-07-26T12:50:12.069Z,3.92
2022-07-26T12:52:40.565Z,5.93
2022-07-26T12:55:11.571Z,5.90
2022-07-26T12:57:45.918Z,8.38
2022-07-26T13:00:17.827Z,8.45
2022-07-26T13:02:47.656Z,8.90
2022-07-26T13:05:16.980Z,6.65
2022-07-26T13:07:45.099Z,10.02
2022-07-26T13:10:32.411Z,7.72
2022-07-26T13:13:01.666Z,3.83
2022-07-26T13:15:35.048Z,5.68
2022-07-26T13:18:08.354Z,8.82
2022-07-26T13:20:39.273Z,14.05
2022-07-26T13:23:11.624Z,6.63
2022-07-26T13:25:42.194Z,10.32
2022-07-26T13:28:10.994Z,8.18
2022-07-26T13:30:43.285Z,5.28
2022-07-26T13:33:13.173Z,7.15
2022-07-26T13:35:42.725Z,8.35
2022-07-26T13:38:11.155Z,4.90
2022-07-26T13:40:39.368Z,6.75
2022-07-26T13:43:07.366Z,4.13
2022-07-26T13:45:35.589Z,7.38
2022-07-26T13:48:03.799Z,5.00
2022-07-26T13:50:33.140Z,5.20
2022-07-26T13:53:01.220Z,3.55
2022-07-26T13:55:29.293Z,5.72
2022-07-26T13:57:58.328Z,8.95
2022-07-26T14:00:27.487Z,5.88
2022-07-26T14:02:55.820Z,5.80
2022-07-26T14:05:24.197Z,4.43
2022-07-26T14:07:54.249Z,8.10
2022-07-26T14:10:23.074Z,5.78
2022-07-26T14:12:51.334Z,5.13
2022-07-26T14:15:22.565Z,6.70
2022-07-26T14:17:51.555Z,4.75
2022-07-26T14:20:20.107Z,7.75
2022-07-26T14:22:49.212Z,6.63
2022-07-26T14:25:18.517Z,5.18
2022-07-26T14:27:46.806Z,5.57
2022-07-26T14:30:15.428Z,4.80
2022-07-26T14:32:43.464Z,3.80
2022-07-26T14:35:12.113Z,5.18
2022-07-26T14:37:42.546Z,4.15
2022-07-26T14:40:14.445Z,11.50
2022-07-26T14:42:43.717Z,3.92
2022-07-26T14:45:12.062Z,6.75
2022-07-26T14:47:40.469Z,6.15
2022-07-26T14:50:10.266Z,4.45
2022-07-26T14:52:39.258Z,7.97
2022-07-26T14:55:08.288Z,4.70
2022-07-26T14:57:39.680Z,8.60
2022-07-26T15:00:12.485Z,5.93
2022-07-26T15:02:41.689Z,5.43
2022-07-26T15:05:10.717Z,7.45
2022-07-26T15:07:39.199Z,6.07
2022-07-26T15:10:08.648Z,6.68
2022-07-26T15:12:36.673Z,8.38
2022-07-26T15:15:05.225Z,6.68
2022-07-26T15:17:34.509Z,8.25
2022-07-26T15:20:02.655Z,15.88
2022-07-26T15:22:30.671Z,5.90
2022-07-26T15:24:58.617Z,4.78
2022-07-26T15:27:26.507Z,8.38
2022-07-26T15:29:58.264Z,8.05
2022-07-26T15:32:30.565Z,8.30
2022-07-26T15:35:00.081Z,7.78
2022-07-26T15:37:28.091Z,6.93
2022-07-26T15:39:56.119Z,7.30
2022-07-26T15:42:24.051Z,7.80
2022-07-26T15:44:52.822Z,5.63
2022-07-26T15:47:51.246Z,5.07
2022-07-26T15:50:14.138Z,5.57
2022-07-26T15:52:45.046Z,5.07
2022-07-26T15:55:13.881Z,6.95
2022-07-26T15:57:42.153Z,6.47
2022-07-26T16:00:12.686Z,7.05
2022-07-26T16:02:42.058Z,6.25
2022-07-26T16:05:12.591Z,5.47
2022-07-26T16:07:41.561Z,8.43
2022-07-26T16:10:12.507Z,5.22
2022-07-26T16:12:40.823Z,5.43
2022-07-26T16:15:11.194Z,6.57
2022-07-26T16:17:40.205Z,5.25
2022-07-26T16:20:09.249Z,3.15
2022-07-26T16:22:41.210Z,7.15
2022-07-26T16:25:12.759Z,7.03
2022-07-26T16:27:41.461Z,5.28
2022-07-26T16:30:10.427Z,4.18
2022-07-26T16:32:38.363Z,3.75
2022-07-26T16:35:07.129Z,8.13
2022-07-26T16:37:35.013Z,6.38
2022-07-26T16:40:05.206Z,6.40
2022-07-26T16:42:33.307Z,6.18
2022-07-26T16:45:01.347Z,7.72
2022-07-26T16:47:29.357Z,7.18
2022-07-26T16:49:57.480Z,7.38
2022-07-26T16:52:25.430Z,5.13
2022-07-26T16:54:53.368Z,7.88
2022-07-26T16:57:22.905Z,6.28
2022-07-26T16:59:51.060Z,7.35
2022-07-26T17:02:19.119Z,5.00
2022-07-26T17:04:47.109Z,5.95
2022-07-26T17:07:25.191Z,6.05
2022-07-26T17:09:54.278Z,4.07
2022-07-26T17:12:24.484Z,4.03
2022-07-26T17:14:53.026Z,6.10
2022-07-26T17:17:21.042Z,4.45
2022-07-26T17:19:49.553Z,4.45
2022-07-26T17:22:17.908Z,5.75
2022-07-26T17:24:46.084Z,2.70
2022-07-26T17:27:14.108Z,2.97
2022-07-26T17:29:43.821Z,4.00
2022-07-26T17:32:11.917Z,3.53
2022-07-26T17:34:40.018Z,3.20
2022-07-26T17:37:09.943Z,3.80
2022-07-26T17:39:52.792Z,3.35
2022-07-26T17:42:21.939Z,3.15
2022-07-26T17:44:51.674Z,3.25
2022-07-26T17:47:28.975Z,4.68
2022-07-26T17:50:14.090Z,3.93
2022-07-26T17:52:47.071Z,3.57
2022-07-26T17:55:15.120Z,4.38
2022-07-26T17:57:43.227Z,5.80
2022-07-26T18:00:14.041Z,3.73
2022-07-26T18:02:42.125Z,5.17
2022-07-26T18:05:11.107Z,3.70
2022-07-26T18:07:40.530Z,6.63
2022-07-26T18:10:10.129Z,4.50
2022-07-26T18:12:38.105Z,6.50
2022-07-26T18:15:07.423Z,7.07
2022-07-26T18:17:36.713Z,6.07
2022-07-26T18:20:05.702Z,3.73
2022-07-26T18:22:33.780Z,6.70
2022-07-26T18:25:01.978Z,4.60
2022-07-26T18:27:30.240Z,6.77
2022-07-26T18:29:58.532Z,4.03
2022-07-26T18:32:26.973Z,5.43
2022-07-26T18:34:56.281Z,7.13
2022-07-26T18:37:24.260Z,5.53
2022-07-26T18:39:57.375Z,4.93
2022-07-26T18:42:25.917Z,5.77
2022-07-26T18:44:54.164Z,11.27
2022-07-26T18:47:22.407Z,6.27
2022-07-26T18:49:50.321Z,8.50
2022-07-26T18:52:28.331Z,5.00
2022-07-26T18:54:58.568Z,7.77
2022-07-26T18:57:26.549Z,6.33
2022-07-26T18:59:54.521Z,6.33
2022-07-26T19:02:22.481Z,5.67
2022-07-26T19:04:50.457Z,3.67
2022-07-26T19:07:18.336Z,3.93
2022-07-26T19:09:47.692Z,5.57
2022-07-26T19:12:15.924Z,6.40
2022-07-26T19:14:43.836Z,5.20
2022-07-26T19:17:11.830Z,5.00
2022-07-26T19:19:40.250Z,7.77
2022-07-26T19:22:08.206Z,6.83
2022-07-26T19:24:37.047Z,4.53
2022-07-26T19:27:06.453Z,6.73
2022-07-26T19:29:34.414Z,5.70
2022-07-26T19:32:02.491Z,5.20
2022-07-26T19:34:30.478Z,6.10
2022-07-26T19:36:58.560Z,7.43
2022-07-26T19:39:26.526Z,4.80
2022-07-26T19:41:54.801Z,4.53
2022-07-26T19:44:24.096Z,4.83
2022-07-26T19:46:57.298Z,3.67
2022-07-26T19:49:26.193Z,3.20
2022-07-26T19:51:54.234Z,4.47
2022-07-26T19:54:22.998Z,5.40
2022-07-26T19:56:50.941Z,4.77
2022-07-26T19:59:23.395Z,3.37
2022-07-26T20:01:56.569Z,5.73
2022-07-26T20:04:26.468Z,5.30
2022-07-26T20:06:55.197Z,6.23
2022-07-26T20:09:23.253Z,6.30
2022-07-26T20:11:51.929Z,10.13
2022-07-26T20:14:20.395Z,6.27
2022-07-26T20:16:52.793Z,5.10
2022-07-26T20:19:28.084Z,7.53
2022-07-26T20:21:56.356Z,6.93
2022-07-26T20:24:24.281Z,5.53
2022-07-26T20:26:52.245Z,4.83
2022-07-26T20:29:20.318Z,5.33
2022-07-26T20:31:48.274Z,6.30
2022-07-26T20:34:16.360Z,4.40
2022-07-26T20:36:45.662Z,3.90
2022-07-26T20:39:15.248Z,6.07
2022-07-26T20:41:43.650Z,4.97
2022-07-26T20:44:12.397Z,4.90
2022-07-26T20:46:41.851Z,11.73
2022-07-26T20:49:11.004Z,6.13
2022-07-26T20:51:39.292Z,3.70
2022-07-26T20:54:10.382Z,7.13
2022-07-26T20:56:38.625Z,7.90
2022-07-26T20:59:07.090Z,5.83
2022-07-26T21:01:35.192Z,6.33
2022-07-26T21:04:03.265Z,7.33
2022-07-26T21:06:33.199Z,5.53
2022-07-26T21:09:09.666Z,7.13
2022-07-26T21:11:39.842Z,6.67
2022-07-26T21:14:08.153Z,8.63
2022-07-26T21:16:36.528Z,8.03
2022-07-26T21:19:05.427Z,5.43
2022-07-26T21:21:34.896Z,4.73
2022-07-26T21:24:02.808Z,4.63
2022-07-26T21:26:30.853Z,4.57
2022-07-26T21:29:00.329Z,4.20
2022-07-26T21:31:28.412Z,7.57
2022-07-26T21:33:56.605Z,6.27
2022-07-26T21:36:24.672Z,4.33
2022-07-26T21:38:52.600Z,5.67
2022-07-26T21:41:20.944Z,7.07
2022-07-26T21:43:49.065Z,5.20
2022-07-26T21:46:18.749Z,3.00
2022-07-26T21:48:46.821Z,5.90
2022-07-26T21:51:15.017Z,5.43
2022-07-26T21:53:43.023Z,6.77
2022-07-26T21:56:11.551Z,4.40
2022-07-26T21:58:40.107Z,6.40
2022-07-26T22:01:11.381Z,5.37
2022-07-26T22:03:42.248Z,6.87
2022-07-26T22:06:11.411Z,4.80
2022-07-26T22:08:39.950Z,4.67
2022-07-26T22:11:12.715Z,7.43
2022-07-26T22:13:40.975Z,5.77
2022-07-26T22:16:09.247Z,4.53
2022-07-26T22:18:41.602Z,4.87
2022-07-26T22:21:10.379Z,4.00
2022-07-26T22:23:38.357Z,3.67
2022-07-26T22:26:09.515Z,5.50
2022-07-26T22:28:38.389Z,3.13
2022-07-26T22:31:06.663Z,4.70
2022-07-26T22:33:34.750Z,4.97
2022-07-26T22:36:04.674Z,4.07
2022-07-26T22:38:32.851Z,8.37
2022-07-26T22:41:00.998Z,5.43
2022-07-26T22:43:28.914Z,4.93
2022-07-26T22:45:57.211Z,6.80
2022-07-26T22:48:25.747Z,6.67
2022-07-26T22:50:53.984Z,5.43
2022-07-26T22:53:23.333Z,5.83
2022-07-26T22:55:51.646Z,6.97
2022-07-26T22:58:20.041Z,6.83
2022-07-26T23:00:48.387Z,7.90
2022-07-26T23:03:20.256Z,5.60
2022-07-26T23:05:50.361Z,4.43
2022-07-26T23:11:10.006Z,6.73
2022-07-26T23:13:40.888Z,6.07
2022-07-26T23:16:09.209Z,7.60
2022-07-26T23:18:37.682Z,7.47
2022-07-26T23:21:05.877Z,4.67
2022-07-26T23:23:33.929Z,6.50
2022-07-26T23:26:02.106Z,4.83
2022-07-26T23:28:37.133Z,7.03
2022-07-26T23:31:08.984Z,6.40
2022-07-26T23:33:52.330Z,6.23
2022-07-26T23:36:23.740Z,6.83
2022-07-26T23:38:52.459Z,4.13
2022-07-26T23:41:20.431Z,5.53
2022-07-26T23:43:49.967Z,4.77
2022-07-26T23:46:18.511Z,4.63
2022-07-26T23:48:47.215Z,3.57
2022-07-26T23:51:15.263Z,6.57
2022-07-26T23:53:43.518Z,5.27
2022-07-26T23:56:11.543Z,5.20
2022-07-26T23:58:39.711Z,8.50
